Time;durP1;ratioP1;P1;durP2;ratioP2;P2;SDS_P1;SDS_P2;PMS_P1;PMS_P2;Temp;Humidity;BMP_temperature;BMP_pressure;BME280_temperature;BME280_humidity;BME280_pressure;Samples;Min_cycle;Max_cycle;Signal;HPM_P1;HPM_P2
2022/09/27 00:02:15;;;;;;;;;;;17.70;95.80;;;;;;5040438;28;19909;-65
2022/09/27 00:04:40;;;;;;;;;;;17.70;95.80;;;;;;5041127;28;20098;-64
2022/09/27 00:07:06;;;;;;;;;;;17.70;95.90;;;;;;5041452;28;19978;-65
2022/09/27 00:09:32;;;;;;;;;;;17.70;95.90;;;;;;5041169;28;19912;-65
2022/09/27 00:11:58;;;;;;;;;;;17.70;95.90;;;;;;5039274;28;20202;-65
2022/09/27 00:14:23;;;;;;;;;;;17.70;95.90;;;;;;5037500;28;19909;-65
2022/09/27 00:16:49;;;;;;;;;;;17.70;95.90;;;;;;5036751;28;19939;-65
2022/09/27 00:19:20;;;;;;;;;;;17.70;95.90;;;;;;5037140;28;20178;-65
2022/09/27 00:21:46;;;;;;;;;;;17.70;95.90;;;;;;5038190;28;19916;-65
2022/09/27 00:24:13;;;;;;;;;;;17.70;95.90;;;;;;5037816;28;19909;-65
2022/09/27 00:26:39;;;;;;;;;;;17.70;95.90;;;;;;5039286;28;19917;-65
2022/09/27 00:29:04;;;;;;;;;;;17.70;95.90;;;;;;5039925;28;19912;-65
2022/09/27 00:31:31;;;;;;;;;;;17.70;95.90;;;;;;5039094;28;19997;-65
2022/09/27 00:33:57;;;;;;;;;;;17.70;95.90;;;;;;5038857;28;19928;-65
2022/09/27 00:36:24;;;;;;;;;;;17.70;95.90;;;;;;5039551;28;19912;-65
2022/09/27 00:38:50;;;;;;;;;;;17.70;95.90;;;;;;5039014;28;19948;-65
2022/09/27 00:41:21;;;;;;;;;;;17.70;96.00;;;;;;5045645;28;19911;-65
2022/09/27 00:43:57;;;;;;;;;;;17.70;96.00;;;;;;5043103;28;20199;-65
2022/09/27 00:46:32;;;;;;;;;;;17.70;96.00;;;;;;5039966;28;19909;-64
2022/09/27 00:49:04;;;;;;;;;;;17.70;96.00;;;;;;5040243;28;20011;-65
2022/09/27 00:51:32;;;;;;;;;;;17.60;96.00;;;;;;5039893;28;20004;-65
2022/09/27 00:53:58;;;;;;;;;;;17.60;96.00;;;;;;5039876;28;19951;-65
2022/09/27 00:56:26;;;;;;;;;;;17.60;96.00;;;;;;5039563;28;19959;-65
2022/09/27 00:58:54;;;;;;;;;;;17.60;96.00;;;;;;5039308;28;19909;-65
2022/09/27 01:01:21;;;;;;;;;;;17.60;96.00;;;;;;5056863;28;19959;-64
2022/09/27 01:03:50;;;;;;;;;;;17.60;96.00;;;;;;5039759;28;19908;-65
2022/09/27 01:06:17;;;;;;;;;;;17.60;96.00;;;;;;5039446;28;19909;-65
2022/09/27 01:08:42;;;;;;;;;;;17.60;96.00;;;;;;5039699;28;19920;-65
2022/09/27 01:11:25;;;;;;;;;;;17.60;96.00;;;;;;5039876;28;19998;-65
2022/09/27 01:14:09;;;;;;;;;;;17.60;96.00;;;;;;5039871;28;19912;-65
2022/09/27 01:16:34;;;;;;;;;;;17.60;96.00;;;;;;5039577;28;19909;-64
2022/09/27 01:19:07;;;;;;;;;;;17.60;96.00;;;;;;5040243;28;19959;-65
2022/09/27 01:21:39;;;;;;;;;;;17.60;96.00;;;;;;5039655;28;19956;-65
2022/09/27 01:24:11;;;;;;;;;;;17.60;96.00;;;;;;5039403;28;19995;-65
2022/09/27 01:26:43;;;;;;;;;;;17.60;96.00;;;;;;5039689;28;19956;-65
2022/09/27 01:29:08;;;;;;;;;;;17.60;96.00;;;;;;5039964;28;19925;-65
2022/09/27 01:31:40;;;;;;;;;;;17.60;96.00;;;;;;5034579;28;20027;-64
2022/09/27 01:34:08;;;;;;;;;;;17.60;96.00;;;;;;5037376;28;19917;-65
2022/09/27 01:36:42;;;;;;;;;;;17.60;96.00;;;;;;5037876;28;20324;-65
2022/09/27 01:39:13;;;;;;;;;;;17.60;96.10;;;;;;5035240;28;19935;-65
2022/09/27 01:41:39;;;;;;;;;;;17.60;96.00;;;;;;5035657;28;19939;-65
2022/09/27 01:44:22;;;;;;;;;;;17.60;96.00;;;;;;5036525;28;19908;-65
2022/09/27 01:46:53;;;;;;;;;;;17.60;96.00;;;;;;5035766;28;19915;-65
2022/09/27 01:49:24;;;;;;;;;;;17.60;96.10;;;;;;5036702;28;20027;-65
2022/09/27 01:51:56;;;;;;;;;;;17.60;96.20;;;;;;5037464;28;19908;-65
2022/09/27 01:54:24;;;;;;;;;;;17.60;96.10;;;;;;5037729;28;19909;-64
2022/09/27 01:56:54;;;;;;;;;;;17.60;96.10;;;;;;5038029;28;19983;-65
2022/09/27 01:59:33;;;;;;;;;;;17.60;96.10;;;;;;5038199;28;20086;-65
2022/09/27 02:02:01;;;;;;;;;;;17.60;96.00;;;;;;5036900;28;19912;-65
2022/09/27 02:04:29;;;;;;;;;;;17.60;96.10;;;;;;5038008;28;19936;-65
2022/09/27 02:06:58;;;;;;;;;;;17.60;96.00;;;;;;5037880;28;20206;-65
2022/09/27 02:09:27;;;;;;;;;;;17.60;96.10;;;;;;5038332;28;20077;-64
2022/09/27 02:11:56;;;;;;;;;;;17.60;96.10;;;;;;5037862;28;20195;-64
2022/09/27 02:14:39;;;;;;;;;;;17.50;96.10;;;;;;5038535;28;19923;-65
2022/09/27 02:17:21;;;;;;;;;;;17.50;96.10;;;;;;5038738;28;19944;-65
2022/09/27 02:19:52;;;;;;;;;;;17.50;96.10;;;;;;5038781;28;19909;-65
2022/09/27 02:22:23;;;;;;;;;;;17.50;96.10;;;;;;5038239;28;19909;-65
2022/09/27 02:25:13;;;;;;;;;;;17.50;96.10;;;;;;5038490;28;19920;-65
2022/09/27 02:27:49;;;;;;;;;;;17.50;96.10;;;;;;5030523;28;19980;-64
2022/09/27 02:30:15;;;;;;;;;;;17.50;96.10;;;;;;5038180;28;19917;-65
2022/09/27 02:32:41;;;;;;;;;;;17.50;96.10;;;;;;5038746;28;19917;-64
2022/09/27 02:35:18;;;;;;;;;;;17.50;96.10;;;;;;5037663;28;19909;-65
2022/09/27 02:37:44;;;;;;;;;;;17.50;96.10;;;;;;5038570;28;19919;-65
2022/09/27 02:40:10;;;;;;;;;;;17.50;96.10;;;;;;5038672;28;19996;-65
2022/09/27 02:42:36;;;;;;;;;;;17.50;96.10;;;;;;5037433;28;19974;-65
2022/09/27 02:45:04;;;;;;;;;;;17.50;96.10;;;;;;5037796;28;19940;-65
2022/09/27 02:47:49;;;;;;;;;;;17.50;96.10;;;;;;5037653;28;19916;-65
2022/09/27 02:50:27;;;;;;;;;;;17.50;96.10;;;;;;5036594;28;19920;-65
2022/09/27 02:53:10;;;;;;;;;;;17.50;96.10;;;;;;5035610;28;19919;-65
2022/09/27 02:55:54;;;;;;;;;;;17.50;96.10;;;;;;5035771;28;19916;-65
2022/09/27 02:58:38;;;;;;;;;;;17.50;96.10;;;;;;5034692;28;19913;-64
2022/09/27 03:01:16;;;;;;;;;;;17.50;96.10;;;;;;5034868;28;19916;-65
2022/09/27 03:03:44;;;;;;;;;;;17.50;96.10;;;;;;5039160;28;19916;-65
2022/09/27 03:06:12;;;;;;;;;;;17.50;96.10;;;;;;5039480;28;19909;-65
2022/09/27 03:08:38;;;;;;;;;;;17.50;96.20;;;;;;5039742;28;19916;-64
2022/09/27 03:11:04;;;;;;;;;;;17.50;96.10;;;;;;5037540;28;19909;-65
2022/09/27 03:13:30;;;;;;;;;;;17.50;96.10;;;;;;5039334;28;19920;-65
2022/09/27 03:15:55;;;;;;;;;;;17.50;96.10;;;;;;5038447;28;19971;-64
2022/09/27 03:18:21;;;;;;;;;;;17.50;96.10;;;;;;5039053;28;19909;-65
2022/09/27 03:20:46;;;;;;;;;;;17.50;96.10;;;;;;5038475;28;19917;-65
2022/09/27 03:23:12;;;;;;;;;;;17.50;96.20;;;;;;5039363;28;19917;-65
2022/09/27 03:25:39;;;;;;;;;;;17.50;96.20;;;;;;5040972;28;19912;-64
2022/09/27 03:28:05;;;;;;;;;;;17.50;96.10;;;;;;5039965;28;19917;-65
2022/09/27 03:30:31;;;;;;;;;;;17.40;96.10;;;;;;5039992;28;19919;-65
2022/09/27 03:32:56;;;;;;;;;;;17.40;96.10;;;;;;5039170;28;19916;-65
2022/09/27 03:35:22;;;;;;;;;;;17.40;96.10;;;;;;5038382;28;19909;-65
2022/09/27 03:37:48;;;;;;;;;;;17.40;96.10;;;;;;5038460;28;20271;-65
2022/09/27 03:40:13;;;;;;;;;;;17.40;96.10;;;;;;5039513;28;19909;-65
2022/09/27 03:42:40;;;;;;;;;;;17.40;96.10;;;;;;5038804;28;19983;-65
2022/09/27 03:45:05;;;;;;;;;;;17.40;96.10;;;;;;5039520;28;19908;-65
2022/09/27 03:47:31;;;;;;;;;;;17.40;96.10;;;;;;5039465;28;19919;-65
2022/09/27 03:49:57;;;;;;;;;;;17.40;96.10;;;;;;5038504;28;19992;-65
2022/09/27 03:52:22;;;;;;;;;;;17.50;96.10;;;;;;5038781;28;19909;-66
2022/09/27 03:54:48;;;;;;;;;;;17.40;96.10;;;;;;5039108;28;20230;-65
2022/09/27 03:57:14;;;;;;;;;;;17.40;96.10;;;;;;5038233;28;20015;-65
2022/09/27 03:59:39;;;;;;;;;;;17.40;96.20;;;;;;5038710;28;19909;-65
2022/09/27 04:02:05;;;;;;;;;;;17.40;96.20;;;;;;5039385;28;19920;-65
2022/09/27 04:04:31;;;;;;;;;;;17.40;96.20;;;;;;5057218;28;19921;-65
2022/09/27 04:06:57;;;;;;;;;;;17.40;96.20;;;;;;5058236;28;19916;-65
2022/09/27 04:09:23;;;;;;;;;;;17.40;96.20;;;;;;5058600;28;20209;-65
2022/09/27 04:11:49;;;;;;;;;;;17.40;96.20;;;;;;5057570;28;20207;-65
2022/09/27 04:14:14;;;;;;;;;;;17.40;96.20;;;;;;5057041;28;19947;-65
2022/09/27 04:16:40;;;;;;;;;;;17.40;96.20;;;;;;5057566;28;19909;-65
2022/09/27 04:19:06;;;;;;;;;;;17.30;96.20;;;;;;5056956;28;19908;-65
2022/09/27 04:21:33;;;;;;;;;;;17.30;96.20;;;;;;5057088;28;19919;-65
2022/09/27 04:23:59;;;;;;;;;;;17.30;96.50;;;;;;5057509;28;19908;-65
2022/09/27 04:26:24;;;;;;;;;;;17.30;96.20;;;;;;5055834;28;19961;-65
2022/09/27 04:28:51;;;;;;;;;;;17.30;96.20;;;;;;5072824;28;19923;-65
2022/09/27 04:31:17;;;;;;;;;;;17.30;96.20;;;;;;5055005;28;19912;-65
2022/09/27 04:33:42;;;;;;;;;;;17.30;96.20;;;;;;5053765;28;19927;-65
2022/09/27 04:36:25;;;;;;;;;;;17.30;96.20;;;;;;5054450;28;19909;-65
2022/09/27 04:38:55;;;;;;;;;;;17.30;96.20;;;;;;5051868;28;19942;-65
2022/09/27 04:41:22;;;;;;;;;;;17.30;96.20;;;;;;5052905;28;19908;-65
2022/09/27 04:43:48;;;;;;;;;;;17.30;96.20;;;;;;5053025;28;20012;-65
2022/09/27 04:46:13;;;;;;;;;;;17.30;96.20;;;;;;5052603;28;19978;-65
2022/09/27 04:48:40;;;;;;;;;;;17.30;96.20;;;;;;5052541;28;20290;-65
2022/09/27 04:51:06;;;;;;;;;;;17.30;96.30;;;;;;5052791;28;19917;-65
2022/09/27 04:53:31;;;;;;;;;;;17.30;96.20;;;;;;5053874;28;19909;-65
2022/09/27 04:55:57;;;;;;;;;;;17.30;96.30;;;;;;5051173;28;19940;-64
2022/09/27 04:58:24;;;;;;;;;;;17.30;96.30;;;;;;5052276;28;20046;-65
2022/09/27 05:00:54;;;;;;;;;;;17.30;96.30;;;;;;5051122;28;19913;-64
2022/09/27 05:03:20;;;;;;;;;;;17.30;96.30;;;;;;5051461;28;20217;-65
2022/09/27 05:05:46;;;;;;;;;;;17.30;96.30;;;;;;5052263;28;19951;-65
2022/09/27 05:08:12;;;;;;;;;;;17.30;96.30;;;;;;5053552;28;19955;-65
2022/09/27 05:10:37;;;;;;;;;;;17.30;96.40;;;;;;5050470;28;19913;-65
2022/09/27 05:13:03;;;;;;;;;;;17.30;96.30;;;;;;5048763;28;19909;-65
2022/09/27 05:15:29;;;;;;;;;;;17.30;96.40;;;;;;5049695;28;19912;-65
2022/09/27 05:17:55;;;;;;;;;;;17.30;96.40;;;;;;5048515;28;19912;-65
2022/09/27 05:20:21;;;;;;;;;;;17.30;96.40;;;;;;5049620;28;19998;-65
2022/09/27 05:22:46;;;;;;;;;;;17.30;96.40;;;;;;5049747;28;20827;-65
2022/09/27 05:25:12;;;;;;;;;;;17.30;96.40;;;;;;5049999;28;19909;-65
2022/09/27 05:27:39;;;;;;;;;;;17.30;96.50;;;;;;5049391;28;20467;-65
2022/09/27 05:30:07;;;;;;;;;;;17.30;96.50;;;;;;5047473;28;20201;-65
2022/09/27 05:32:33;;;;;;;;;;;17.30;96.50;;;;;;5044456;28;20328;-65
2022/09/27 05:34:58;;;;;;;;;;;17.30;96.50;;;;;;5047852;28;20172;-64
2022/09/27 05:37:24;;;;;;;;;;;17.30;96.50;;;;;;5049573;28;20218;-65
2022/09/27 05:39:50;;;;;;;;;;;17.30;96.60;;;;;;5049714;28;19908;-65
2022/09/27 05:42:16;;;;;;;;;;;17.30;96.90;;;;;;5049366;28;19924;-65
2022/09/27 05:44:45;;;;;;;;;;;17.30;97.10;;;;;;5048415;28;20298;-65
2022/09/27 05:47:11;;;;;;;;;;;17.30;97.30;;;;;;5047238;28;20263;-65
2022/09/27 05:49:39;;;;;;;;;;;17.30;97.40;;;;;;5049976;28;19912;-65
2022/09/27 05:52:05;;;;;;;;;;;17.30;97.70;;;;;;5049873;28;20365;-65
2022/09/27 05:54:30;;;;;;;;;;;17.30;97.80;;;;;;5047326;28;20012;-66
2022/09/27 05:56:59;;;;;;;;;;;17.30;98.00;;;;;;5045558;28;20096;-65
2022/09/27 05:59:25;;;;;;;;;;;17.30;98.10;;;;;;5045942;28;20018;-65
2022/09/27 06:01:51;;;;;;;;;;;17.30;98.20;;;;;;5048308;28;19926;-65
2022/09/27 06:04:17;;;;;;;;;;;17.40;98.40;;;;;;5048541;28;20148;-65
2022/09/27 06:06:43;;;;;;;;;;;17.40;98.40;;;;;;5047451;28;20070;-65
2022/09/27 06:09:09;;;;;;;;;;;17.40;98.40;;;;;;5045734;28;20019;-65
2022/09/27 06:11:35;;;;;;;;;;;17.40;98.40;;;;;;5047700;28;20376;-65
2022/09/27 06:14:01;;;;;;;;;;;17.40;98.50;;;;;;5047854;28;19920;-65
2022/09/27 06:16:26;;;;;;;;;;;17.40;98.60;;;;;;5066149;28;20219;-65
2022/09/27 06:18:52;;;;;;;;;;;17.50;98.60;;;;;;5045957;28;19908;-65
2022/09/27 06:21:18;;;;;;;;;;;17.50;98.50;;;;;;5044602;28;20298;-65
2022/09/27 06:23:43;;;;;;;;;;;17.50;98.40;;;;;;5047181;28;19940;-65
2022/09/27 06:26:09;;;;;;;;;;;17.60;98.30;;;;;;5047718;28;19913;-65
2022/09/27 06:28:35;;;;;;;;;;;17.70;98.00;;;;;;5047047;28;19920;-65
2022/09/27 06:31:01;;;;;;;;;;;18.30;97.00;;;;;;5047290;28;20012;-65
2022/09/27 06:33:29;;;;;;;;;;;18.60;95.90;;;;;;5048469;28;19917;-65
2022/09/27 06:35:55;;;;;;;;;;;18.50;95.70;;;;;;5048918;28;19909;-65
2022/09/27 06:38:21;;;;;;;;;;;18.50;95.80;;;;;;5049748;28;19909;-65
2022/09/27 06:40:47;;;;;;;;;;;18.40;95.90;;;;;;5051330;28;20015;-65
2022/09/27 06:43:14;;;;;;;;;;;18.30;96.10;;;;;;5051190;28;20175;-65
2022/09/27 06:45:39;;;;;;;;;;;18.20;96.20;;;;;;5050560;28;20019;-65
2022/09/27 06:48:06;;;;;;;;;;;18.20;96.30;;;;;;5050366;28;20058;-65
2022/09/27 06:50:33;;;;;;;;;;;18.20;96.30;;;;;;5049084;28;19985;-65
2022/09/27 06:52:59;;;;;;;;;;;18.10;96.30;;;;;;5048777;28;19909;-65
2022/09/27 06:55:24;;;;;;;;;;;18.10;96.40;;;;;;5047051;28;19936;-65
2022/09/27 07:00:38;;;;;;;;;;;18.00;96.70;;;;;;5065652;28;20028;-65
2022/09/27 07:03:04;;;;;;;;;;;18.00;96.50;;;;;;5047392;28;20003;-65
2022/09/27 07:05:30;;;;;;;;;;;17.90;96.50;;;;;;5045536;28;19913;-65
2022/09/27 07:07:56;;;;;;;;;;;17.90;96.50;;;;;;5046143;28;19913;-65
2022/09/27 07:10:27;;;;;;;;;;;17.90;96.50;;;;;;5045318;28;19908;-65
2022/09/27 07:12:52;;;;;;;;;;;17.90;96.50;;;;;;5047059;28;19909;-65
2022/09/27 07:15:20;;;;;;;;;;;17.90;96.50;;;;;;5047360;28;19931;-65
2022/09/27 07:17:58;;;;;;;;;;;17.80;96.60;;;;;;5044766;28;19934;-65
2022/09/27 07:20:28;;;;;;;;;;;17.80;96.60;;;;;;5041925;28;19909;-65
2022/09/27 07:22:54;;;;;;;;;;;17.90;96.60;;;;;;5042155;28;20172;-65
2022/09/27 07:25:19;;;;;;;;;;;17.80;96.50;;;;;;5042704;28;20086;-64
2022/09/27 07:27:45;;;;;;;;;;;17.80;96.40;;;;;;5045541;28;19955;-64
2022/09/27 07:30:11;;;;;;;;;;;17.90;96.40;;;;;;5046644;28;19966;-64
2022/09/27 07:32:37;;;;;;;;;;;17.80;96.30;;;;;;5045441;28;20030;-65
2022/09/27 07:35:04;;;;;;;;;;;17.90;96.30;;;;;;5046998;28;20127;-64
2022/09/27 07:37:33;;;;;;;;;;;17.90;96.20;;;;;;5047149;28;20219;-65
2022/09/27 07:39:59;;;;;;;;;;;17.90;96.00;;;;;;5047926;28;19982;-65
2022/09/27 07:42:25;;;;;;;;;;;18.00;95.90;;;;;;5049209;28;20340;-65
2022/09/27 07:44:50;;;;;;;;;;;18.00;95.80;;;;;;5046826;28;20064;-65
2022/09/27 07:47:18;;;;;;;;;;;18.00;95.80;;;;;;5048216;28;20391;-65
2022/09/27 07:49:43;;;;;;;;;;;18.00;95.80;;;;;;5052515;28;19985;-65
2022/09/27 07:52:09;;;;;;;;;;;17.90;95.70;;;;;;5054423;28;19952;-65
2022/09/27 07:54:36;;;;;;;;;;;17.90;95.70;;;;;;5054382;28;20236;-65
2022/09/27 07:57:02;;;;;;;;;;;17.90;95.60;;;;;;5050456;28;19908;-65
2022/09/27 07:59:28;;;;;;;;;;;18.00;95.60;;;;;;5050603;28;19951;-65
2022/09/27 08:01:54;;;;;;;;;;;18.00;95.50;;;;;;5051048;28;20182;-65
2022/09/27 08:04:20;;;;;;;;;;;18.00;95.50;;;;;;5052952;28;19916;-65
2022/09/27 08:06:46;;;;;;;;;;;18.00;95.40;;;;;;5053173;28;19940;-65
2022/09/27 08:09:12;;;;;;;;;;;18.00;95.30;;;;;;5051327;28;20039;-65
2022/09/27 08:11:37;;;;;;;;;;;18.10;95.30;;;;;;5049076;28;20194;-65
2022/09/27 08:14:03;;;;;;;;;;;18.00;95.30;;;;;;5048607;28;20019;-65
2022/09/27 08:16:29;;;;;;;;;;;18.00;95.30;;;;;;5049943;28;20255;-65
2022/09/27 08:18:55;;;;;;;;;;;18.00;95.40;;;;;;5049583;28;20247;-65
2022/09/27 08:21:20;;;;;;;;;;;18.00;95.40;;;;;;5051219;28;19910;-65
2022/09/27 08:23:46;;;;;;;;;;;17.90;95.60;;;;;;5050810;28;19910;-65
2022/09/27 08:26:12;;;;;;;;;;;17.90;95.40;;;;;;5050712;28;19908;-65
2022/09/27 08:28:37;;;;;;;;;;;17.90;95.40;;;;;;5051874;28;19913;-65
2022/09/27 08:31:03;;;;;;;;;;;17.90;95.50;;;;;;5053955;28;19917;-65
2022/09/27 08:33:28;;;;;;;;;;;17.90;95.50;;;;;;5055565;28;19959;-65
2022/09/27 08:35:54;;;;;;;;;;;17.90;95.50;;;;;;5055672;28;19918;-66
2022/09/27 08:38:21;;;;;;;;;;;17.90;95.60;;;;;;5056178;28;20305;-65
2022/09/27 08:40:54;;;;;;;;;;;17.90;95.60;;;;;;5053988;28;20114;-66
2022/09/27 08:43:46;;;;;;;;;;;17.90;95.50;;;;;;5053168;28;19913;-65
2022/09/27 08:46:29;;;;;;;;;;;17.90;95.40;;;;;;5053492;28;20220;-65
2022/09/27 08:49:03;;;;;;;;;;;18.20;95.00;;;;;;5051209;28;20206;-66
2022/09/27 08:51:30;;;;;;;;;;;19.00;93.30;;;;;;5050453;28;19922;-66
2022/09/27 08:54:06;;;;;;;;;;;18.90;92.50;;;;;;5049155;28;19908;-66
2022/09/27 08:56:32;;;;;;;;;;;18.90;92.40;;;;;;5050849;28;20271;-66
2022/09/27 08:59:05;;;;;;;;;;;18.90;92.50;;;;;;5049179;28;19995;-65
2022/09/27 09:01:30;;;;;;;;;;;18.80;92.50;;;;;;5050334;28;20200;-66
2022/09/27 09:03:59;;;;;;;;;;;18.90;92.40;;;;;;5051308;28;20286;-65
2022/09/27 09:06:30;;;;;;;;;;;18.80;92.30;;;;;;5053417;28;19908;-65
2022/09/27 09:08:59;;;;;;;;;;;18.70;92.50;;;;;;5053679;28;19912;-65
2022/09/27 09:14:12;;;;;;;;;;;18.70;92.50;;;;;;5069194;28;19943;-65
2022/09/27 09:16:48;;;;;;;;;;;18.70;92.50;;;;;;5051629;28;20287;-65
2022/09/27 09:19:24;;;;;;;;;;;18.70;92.50;;;;;;5053053;28;19909;-64
2022/09/27 09:21:49;;;;;;;;;;;18.70;92.50;;;;;;5052509;28;19909;-65
2022/09/27 09:24:34;;;;;;;;;;;18.70;92.50;;;;;;5053425;28;19909;-65
2022/09/27 09:27:02;;;;;;;;;;;18.70;92.50;;;;;;5053363;28;20175;-65
2022/09/27 09:29:33;;;;;;;;;;;18.70;92.60;;;;;;5051388;28;19912;-66
2022/09/27 09:31:59;;;;;;;;;;;18.60;92.60;;;;;;5049903;28;19908;-65
2022/09/27 09:34:31;;;;;;;;;;;18.60;92.70;;;;;;5052149;28;19912;-66
2022/09/27 09:37:02;;;;;;;;;;;18.60;92.80;;;;;;5049125;28;19909;-66
2022/09/27 09:39:40;;;;;;;;;;;18.50;93.00;;;;;;5050729;28;19913;-66
2022/09/27 09:42:12;;;;;;;;;;;18.50;93.10;;;;;;5050014;28;20057;-65
2022/09/27 09:44:38;;;;;;;;;;;18.50;93.20;;;;;;5051183;28;19909;-66
2022/09/27 09:47:09;;;;;;;;;;;18.50;93.20;;;;;;5050426;28;20372;-65
2022/09/27 09:49:38;;;;;;;;;;;18.50;93.20;;;;;;5049741;28;19913;-66
2022/09/27 09:52:10;;;;;;;;;;;18.50;93.30;;;;;;5050244;28;19912;-65
2022/09/27 09:54:43;;;;;;;;;;;18.40;93.30;;;;;;5048433;28;20198;-66
2022/09/27 09:57:09;;;;;;;;;;;18.40;93.30;;;;;;5047862;28;19916;-66
2022/09/27 09:59:40;;;;;;;;;;;18.50;93.30;;;;;;5050350;28;19912;-66
2022/09/27 10:02:24;;;;;;;;;;;18.50;93.20;;;;;;5049902;28;20026;-65
2022/09/27 10:04:49;;;;;;;;;;;18.50;93.20;;;;;;5048064;28;19999;-65
2022/09/27 10:07:18;;;;;;;;;;;18.60;93.10;;;;;;5046869;28;20016;-66
2022/09/27 10:09:44;;;;;;;;;;;18.60;93.30;;;;;;5047715;28;19912;-65
2022/09/27 10:12:09;;;;;;;;;;;18.60;94.30;;;;;;5063602;28;19905;-64
2022/09/27 10:14:35;;;;;;;;;;;18.60;95.30;;;;;;5055525;28;19919;-66
2022/09/27 10:17:03;;;;;;;;;;;18.60;96.10;;;;;;5048793;28;19952;-65
2022/09/27 10:19:30;;;;;;;;;;;18.70;96.50;;;;;;5049076;28;19962;-66
2022/09/27 10:22:09;;;;;;;;;;;18.80;96.80;;;;;;5048064;28;20188;-65
2022/09/27 10:24:55;;;;;;;;;;;18.80;97.00;;;;;;5046478;28;19909;-66
2022/09/27 10:27:22;;;;;;;;;;;18.80;97.00;;;;;;5047949;28;20038;-65
2022/09/27 10:29:55;;;;;;;;;;;18.90;96.70;;;;;;5046735;28;19913;-65
2022/09/27 10:32:31;;;;;;;;;;;18.80;96.20;;;;;;5046474;28;20151;-64
2022/09/27 10:35:16;;;;;;;;;;;18.80;96.10;;;;;;5046252;28;20176;-65
2022/09/27 10:37:42;;;;;;;;;;;18.80;95.90;;;;;;5064618;28;20225;-66
2022/09/27 10:40:28;;;;;;;;;;;18.80;95.70;;;;;;5047533;28;19999;-65
2022/09/27 10:42:53;;;;;;;;;;;18.80;95.60;;;;;;5047812;28;20024;-65
2022/09/27 10:45:32;;;;;;;;;;;18.90;95.30;;;;;;5047533;28;19912;-66
2022/09/27 10:47:59;;;;;;;;;;;18.90;95.10;;;;;;5046045;28;19923;-65
2022/09/27 10:50:26;;;;;;;;;;;18.90;94.90;;;;;;5045228;28;20169;-65
2022/09/27 10:53:02;;;;;;;;;;;19.00;94.80;;;;;;5048135;28;20136;-66
2022/09/27 10:55:30;;;;;;;;;;;19.10;94.50;;;;;;5045159;28;19908;-65
2022/09/27 10:57:56;;;;;;;;;;;19.10;94.20;;;;;;5046079;28;20005;-65
2022/09/27 11:00:24;;;;;;;;;;;19.30;93.90;;;;;;5048321;28;20838;-65
2022/09/27 11:02:56;;;;;;;;;;;19.30;93.50;;;;;;5048970;28;19908;-65
2022/09/27 11:05:22;;;;;;;;;;;19.40;93.30;;;;;;5047764;28;20014;-66
2022/09/27 11:07:52;;;;;;;;;;;19.50;93.00;;;;;;5046951;28;20019;-66
2022/09/27 11:10:22;;;;;;;;;;;19.50;92.70;;;;;;5045751;28;19909;-66
2022/09/27 11:13:31;;;;;;;;;;;19.60;92.40;;;;;;5045650;28;19909;-66
2022/09/27 11:16:15;;;;;;;;;;;19.60;92.20;;;;;;4946008;28;20330;-65
2022/09/27 11:18:56;;;;;;;;;;;19.60;92.10;;;;;;4946730;28;20100;-66
2022/09/27 11:21:32;;;;;;;;;;;19.60;92.00;;;;;;5017810;28;20017;-66
2022/09/27 11:24:16;;;;;;;;;;;19.50;92.10;;;;;;5049972;28;20303;-66
2022/09/27 11:26:54;;;;;;;;;;;19.50;92.20;;;;;;5051408;28;20114;-66
2022/09/27 11:29:40;;;;;;;;;;;19.50;92.30;;;;;;5051843;28;20043;-66
2022/09/27 11:32:06;;;;;;;;;;;19.40;92.40;;;;;;4999281;28;20171;-66
2022/09/27 11:34:53;;;;;;;;;;;19.40;92.40;;;;;;5051833;28;19908;-66
2022/09/27 11:37:44;;;;;;;;;;;19.40;92.50;;;;;;5055702;28;19909;-66
2022/09/27 11:40:13;;;;;;;;;;;19.30;92.60;;;;;;5048220;28;20297;-66
2022/09/27 11:42:54;;;;;;;;;;;19.30;92.70;;;;;;5053935;28;19909;-65
2022/09/27 11:45:32;;;;;;;;;;;19.30;92.80;;;;;;5054103;28;20185;-66
2022/09/27 11:48:02;;;;;;;;;;;19.20;92.90;;;;;;5073409;28;20248;-65
2022/09/27 11:50:31;;;;;;;;;;;19.30;92.90;;;;;;5053222;28;20285;-66
2022/09/27 11:53:08;;;;;;;;;;;19.30;92.70;;;;;;5053408;28;19909;-65
2022/09/27 11:55:42;;;;;;;;;;;19.30;92.60;;;;;;5053412;28;20332;-66
2022/09/27 11:58:24;;;;;;;;;;;19.30;92.60;;;;;;5054936;28;20003;-66
2022/09/27 12:01:01;;;;;;;;;;;19.30;92.50;;;;;;5051940;28;20168;-66
2022/09/27 12:03:27;;;;;;;;;;;19.30;92.50;;;;;;5054001;28;19935;-66
2022/09/27 12:06:05;;;;;;;;;;;19.30;92.50;;;;;;5054633;28;19908;-65
2022/09/27 12:08:41;;;;;;;;;;;19.30;92.60;;;;;;5054695;28;19917;-65
2022/09/27 12:11:16;;;;;;;;;;;19.20;92.70;;;;;;5053026;28;20003;-66
2022/09/27 12:13:52;;;;;;;;;;;19.10;92.90;;;;;;5052243;28;20011;-66
2022/09/27 12:16:18;;;;;;;;;;;19.10;92.90;;;;;;5053246;28;19962;-66
2022/09/27 12:18:46;;;;;;;;;;;19.10;92.90;;;;;;5050771;28;19909;-66
2022/09/27 12:21:12;;;;;;;;;;;19.20;92.90;;;;;;5049497;28;19919;-65
2022/09/27 12:23:45;;;;;;;;;;;19.20;92.80;;;;;;5051484;28;19913;-65
2022/09/27 12:26:40;;;;;;;;;;;19.20;92.80;;;;;;5068145;28;19908;-64
2022/09/27 12:29:09;;;;;;;;;;;19.20;92.80;;;;;;5035388;28;19920;-66
2022/09/27 12:31:35;;;;;;;;;;;19.20;92.90;;;;;;5050783;28;19908;-65
2022/09/27 12:34:16;;;;;;;;;;;19.20;92.80;;;;;;5048793;28;19924;-65
2022/09/27 12:36:45;;;;;;;;;;;19.10;92.80;;;;;;5049284;28;19920;-65
2022/09/27 12:39:17;;;;;;;;;;;19.20;92.80;;;;;;5051221;28;20137;-64
2022/09/27 12:41:45;;;;;;;;;;;19.20;92.80;;;;;;5049716;28;20324;-65
2022/09/27 12:44:11;;;;;;;;;;;19.20;92.80;;;;;;5049727;28;20154;-65
2022/09/27 12:46:45;;;;;;;;;;;19.20;92.70;;;;;;5049511;28;19943;-65
2022/09/27 12:49:15;;;;;;;;;;;19.20;92.80;;;;;;5049570;28;20066;-64
2022/09/27 12:51:55;;;;;;;;;;;19.10;92.90;;;;;;5050065;28;19935;-64
2022/09/27 12:54:27;;;;;;;;;;;19.00;93.00;;;;;;5051295;28;20023;-64
2022/09/27 12:56:53;;;;;;;;;;;19.00;93.20;;;;;;5042522;28;20085;-65
2022/09/27 12:59:38;;;;;;;;;;;18.90;93.30;;;;;;5032474;28;19975;-64
2022/09/27 13:02:12;;;;;;;;;;;18.90;93.50;;;;;;5031880;28;20186;-64
2022/09/27 13:04:47;;;;;;;;;;;18.80;93.90;;;;;;5032320;28;19915;-65
2022/09/27 13:07:28;;;;;;;;;;;18.80;93.80;;;;;;5031330;28;20384;-65
2022/09/27 13:10:08;;;;;;;;;;;18.80;93.90;;;;;;5031780;28;19912;-65
2022/09/27 13:12:35;;;;;;;;;;;18.70;94.00;;;;;;5028709;28;20133;-65
2022/09/27 13:15:38;;;;;;;;;;;18.70;94.10;;;;;;5027345;28;19913;-65
2022/09/27 13:18:27;;;;;;;;;;;18.70;94.10;;;;;;5030746;28;19920;-65
2022/09/27 13:20:54;;;;;;;;;;;18.70;94.20;;;;;;5030493;28;19909;-65
2022/09/27 13:23:20;;;;;;;;;;;18.70;94.30;;;;;;5029474;28;19935;-65
2022/09/27 13:25:53;;;;;;;;;;;18.60;94.30;;;;;;5028150;28;20287;-65
2022/09/27 13:28:28;;;;;;;;;;;18.60;94.40;;;;;;5027068;28;19931;-65
2022/09/27 13:30:54;;;;;;;;;;;18.60;94.40;;;;;;5028815;28;19921;-65
2022/09/27 13:33:21;;;;;;;;;;;18.60;94.50;;;;;;5028932;28;19916;-65
2022/09/27 13:36:12;;;;;;;;;;;18.60;94.50;;;;;;5028364;28;20441;-65
2022/09/27 13:38:38;;;;;;;;;;;18.60;94.60;;;;;;5021856;28;20327;-65
2022/09/27 13:41:16;;;;;;;;;;;18.60;94.70;;;;;;5027492;28;20293;-65
2022/09/27 13:43:42;;;;;;;;;;;18.60;94.70;;;;;;5026446;28;19908;-64
2022/09/27 13:46:14;;;;;;;;;;;18.60;94.70;;;;;;5027353;28;19920;-65
2022/09/27 13:48:52;;;;;;;;;;;18.60;94.60;;;;;;5028416;28;19952;-65
2022/09/27 13:51:24;;;;;;;;;;;18.60;94.40;;;;;;5040846;28;19912;-65
2022/09/27 13:54:01;;;;;;;;;;;18.70;94.30;;;;;;5046838;28;19908;-65
2022/09/27 13:56:45;;;;;;;;;;;18.70;94.20;;;;;;5045981;28;19919;-65
2022/09/27 13:59:17;;;;;;;;;;;18.80;94.20;;;;;;5049079;28;20019;-65
2022/09/27 14:01:48;;;;;;;;;;;18.80;94.10;;;;;;5050084;28;20007;-65
2022/09/27 14:04:14;;;;;;;;;;;18.80;94.20;;;;;;5052444;28;19909;-65
2022/09/27 14:06:44;;;;;;;;;;;18.70;94.30;;;;;;5051553;28;19915;-65
2022/09/27 14:09:16;;;;;;;;;;;18.70;94.40;;;;;;5052403;28;19923;-65
2022/09/27 14:11:43;;;;;;;;;;;18.60;94.50;;;;;;5048810;28;19908;-65
2022/09/27 14:14:14;;;;;;;;;;;18.70;94.50;;;;;;5044317;28;19913;-65
2022/09/27 14:16:43;;;;;;;;;;;18.70;94.50;;;;;;5047139;28;20097;-65
2022/09/27 14:19:14;;;;;;;;;;;18.70;94.40;;;;;;5046641;28;19994;-64
2022/09/27 14:21:41;;;;;;;;;;;18.70;94.40;;;;;;5045964;28;19908;-65
2022/09/27 14:24:25;;;;;;;;;;;18.70;94.40;;;;;;5046786;28;20018;-64
2022/09/27 14:27:10;;;;;;;;;;;18.80;94.40;;;;;;5047821;28;19978;-65
2022/09/27 14:29:41;;;;;;;;;;;18.70;94.40;;;;;;5050150;28;20087;-65
2022/09/27 14:32:12;;;;;;;;;;;18.80;94.50;;;;;;5049987;28;19908;-65
2022/09/27 14:34:38;;;;;;;;;;;18.80;94.50;;;;;;5049603;28;19908;-65
2022/09/27 14:37:22;;;;;;;;;;;18.80;94.40;;;;;;5050697;28;20059;-65
2022/09/27 14:39:54;;;;;;;;;;;18.80;94.50;;;;;;5051341;28;19916;-64